sensor_id;sensor_type;location;lat;lon;timestamp;pressure;altitude;pressure_sealevel;temperature;humidity
63556;BME280;49700;48.072;7.800;2023-07-09T00:00:21;99742.69;;;24.11;nan
63556;BME280;49700;48.072;7.800;2023-07-09T00:02:48;99742.22;;;24.07;nan
63556;BME280;49700;48.072;7.800;2023-07-09T00:05:15;99744.91;;;24.07;nan
63556;BME280;49700;48.072;7.800;2023-07-09T00:07:43;99746.56;;;24.08;nan
63556;BME280;49700;48.072;7.800;2023-07-09T00:10:17;99740.28;;;24.01;nan
63556;BME280;49700;48.072;7.800;2023-07-09T00:12:44;99738.66;;;23.92;nan
63556;BME280;49700;48.072;7.800;2023-07-09T00:15:11;99736.06;;;23.84;nan
63556;BME280;49700;48.072;7.800;2023-07-09T00:17:37;99734.09;;;23.78;nan
63556;BME280;49700;48.072;7.800;2023-07-09T00:22:39;99740.19;;;23.72;nan
63556;BME280;49700;48.072;7.800;2023-07-09T00:25:05;99731.44;;;23.70;nan
63556;BME280;49700;48.072;7.800;2023-07-09T00:27:30;99729.59;;;23.70;nan
63556;BME280;49700;48.072;7.800;2023-07-09T00:29:56;99736.69;;;23.71;nan
63556;BME280;49700;48.072;7.800;2023-07-09T00:32:22;99742.88;;;23.72;nan
63556;BME280;49700;48.072;7.800;2023-07-09T00:34:51;99748.25;;;23.72;nan
63556;BME280;49700;48.072;7.800;2023-07-09T00:37:24;99749.06;;;23.72;nan
63556;BME280;49700;48.072;7.800;2023-07-09T00:39:51;99750.72;;;23.73;nan
63556;BME280;49700;48.072;7.800;2023-07-09T00:42:20;99748.25;;;23.72;nan
63556;BME280;49700;48.072;7.800;2023-07-09T00:44:55;99739.50;;;23.70;nan
63556;BME280;49700;48.072;7.800;2023-07-09T00:47:25;99742.53;;;23.67;nan
63556;BME280;49700;48.072;7.800;2023-07-09T00:50:08;99741.22;;;23.62;nan
63556;BME280;49700;48.072;7.800;2023-07-09T00:52:49;99745.28;;;23.58;nan
63556;BME280;49700;48.072;7.800;2023-07-09T00:55:19;99741.13;;;23.56;nan
63556;BME280;49700;48.072;7.800;2023-07-09T00:57:47;99750.34;;;23.53;nan
63556;BME280;49700;48.072;7.800;2023-07-09T01:00:23;99749.38;;;23.46;nan
63556;BME280;49700;48.072;7.800;2023-07-09T01:02:50;99750.09;;;23.40;nan
63556;BME280;49700;48.072;7.800;2023-07-09T01:05:16;99758.19;;;23.32;nan
63556;BME280;49700;48.072;7.800;2023-07-09T01:07:45;99750.72;;;23.19;nan
63556;BME280;49700;48.072;7.800;2023-07-09T01:10:12;99747.75;;;23.06;nan
63556;BME280;49700;48.072;7.800;2023-07-09T01:12:39;99744.44;;;22.95;nan
63556;BME280;49700;48.072;7.800;2023-07-09T01:15:05;99745.94;;;22.90;nan
63556;BME280;49700;48.072;7.800;2023-07-09T01:17:33;99741.63;;;22.89;nan
63556;BME280;49700;48.072;7.800;2023-07-09T01:19:58;99744.13;;;22.90;nan
63556;BME280;49700;48.072;7.800;2023-07-09T01:22:24;99744.13;;;22.90;nan
63556;BME280;49700;48.072;7.800;2023-07-09T01:25:03;99746.63;;;22.92;nan
63556;BME280;49700;48.072;7.800;2023-07-09T01:27:38;99748.47;;;22.91;nan
63556;BME280;49700;48.072;7.800;2023-07-09T01:30:08;99745.63;;;22.93;nan
63556;BME280;49700;48.072;7.800;2023-07-09T01:32:37;99741.09;;;22.93;nan
63556;BME280;49700;48.072;7.800;2023-07-09T01:35:05;99740.44;;;22.91;nan
63556;BME280;49700;48.072;7.800;2023-07-09T01:37:35;99735.91;;;22.92;nan
63556;BME280;49700;48.072;7.800;2023-07-09T01:40:02;99736.25;;;22.89;nan
63556;BME280;49700;48.072;7.800;2023-07-09T01:42:31;99735.78;;;22.85;nan
63556;BME280;49700;48.072;7.800;2023-07-09T01:44:57;99741.66;;;22.81;nan
63556;BME280;49700;48.072;7.800;2023-07-09T01:47:23;99739.66;;;22.74;nan
63556;BME280;49700;48.072;7.800;2023-07-09T01:49:52;99729.31;;;22.71;nan
63556;BME280;49700;48.072;7.800;2023-07-09T01:52:23;99738.34;;;22.70;nan
63556;BME280;49700;48.072;7.800;2023-07-09T01:54:50;99747.38;;;22.69;nan
63556;BME280;49700;48.072;7.800;2023-07-09T01:57:21;99751.25;;;22.67;nan
63556;BME280;49700;48.072;7.800;2023-07-09T01:59:54;99750.91;;;22.62;nan
63556;BME280;49700;48.072;7.800;2023-07-09T02:02:23;99750.44;;;22.58;nan
63556;BME280;49700;48.072;7.800;2023-07-09T02:04:52;99748.09;;;22.55;nan
63556;BME280;49700;48.072;7.800;2023-07-09T02:07:19;99752.31;;;22.49;nan
63556;BME280;49700;48.072;7.800;2023-07-09T02:09:46;99754.34;;;22.39;nan
63556;BME280;49700;48.072;7.800;2023-07-09T02:12:13;99750.84;;;22.30;nan
63556;BME280;49700;48.072;7.800;2023-07-09T02:14:40;99748.34;;;22.21;nan
63556;BME280;49700;48.072;7.800;2023-07-09T02:17:06;99755.84;;;22.09;nan
63556;BME280;49700;48.072;7.800;2023-07-09T02:19:33;99761.50;;;21.98;nan
63556;BME280;49700;48.072;7.800;2023-07-09T02:21:58;99751.69;;;21.82;nan
63556;BME280;49700;48.072;7.800;2023-07-09T02:24:27;99753.16;;;21.68;nan
63556;BME280;49700;48.072;7.800;2023-07-09T02:27:00;99758.66;;;21.58;nan
63556;BME280;49700;48.072;7.800;2023-07-09T02:29:27;99753.97;;;21.52;nan
63556;BME280;49700;48.072;7.800;2023-07-09T02:31:55;99761.47;;;21.49;nan
63556;BME280;49700;48.072;7.800;2023-07-09T02:34:21;99756.81;;;21.51;nan
63556;BME280;49700;48.072;7.800;2023-07-09T02:36:54;99759.66;;;21.57;nan
63556;BME280;49700;48.072;7.800;2023-07-09T02:39:20;99761.16;;;21.60;nan
63556;BME280;49700;48.072;7.800;2023-07-09T02:41:46;99761.84;;;21.62;nan
63556;BME280;49700;48.072;7.800;2023-07-09T02:44:12;99763.53;;;21.63;nan
63556;BME280;49700;48.072;7.800;2023-07-09T02:46:37;99761.16;;;21.60;nan
63556;BME280;49700;48.072;7.800;2023-07-09T02:49:04;99767.84;;;21.56;nan
63556;BME280;49700;48.072;7.800;2023-07-09T02:51:33;99771.34;;;21.56;nan
63556;BME280;49700;48.072;7.800;2023-07-09T02:53:59;99778.06;;;21.60;nan
63556;BME280;49700;48.072;7.800;2023-07-09T02:56:25;99773.22;;;21.64;nan
63556;BME280;49700;48.072;7.800;2023-07-09T02:58:51;99771.84;;;21.60;nan
63556;BME280;49700;48.072;7.800;2023-07-09T03:01:17;99772.84;;;21.51;nan
63556;BME280;49700;48.072;7.800;2023-07-09T03:03:43;99775.84;;;21.39;nan
63556;BME280;49700;48.072;7.800;2023-07-09T03:06:09;99767.44;;;21.34;nan
63556;BME280;49700;48.072;7.800;2023-07-09T03:08:34;99770.09;;;21.34;nan
63556;BME280;49700;48.072;7.800;2023-07-09T03:11:10;99775.16;;;21.37;nan
63556;BME280;49700;48.072;7.800;2023-07-09T03:13:36;99769.47;;;21.40;nan
63556;BME280;49700;48.072;7.800;2023-07-09T03:16:01;99769.16;;;21.43;nan
63556;BME280;49700;48.072;7.800;2023-07-09T03:18:27;99763.31;;;21.48;nan
63556;BME280;49700;48.072;7.800;2023-07-09T03:20:52;99767.50;;;21.51;nan
63556;BME280;49700;48.072;7.800;2023-07-09T03:23:18;99775.19;;;21.54;nan
63556;BME280;49700;48.072;7.800;2023-07-09T03:25:44;99776.53;;;21.58;nan
63556;BME280;49700;48.072;7.800;2023-07-09T03:28:10;99778.34;;;21.57;nan
63556;BME280;49700;48.072;7.800;2023-07-09T03:30:55;99783.38;;;21.52;nan
63556;BME280;49700;48.072;7.800;2023-07-09T03:33:21;99784.03;;;21.46;nan
63556;BME280;49700;48.072;7.800;2023-07-09T03:35:47;99779.00;;;21.43;nan
63556;BME280;49700;48.072;7.800;2023-07-09T03:38:13;99780.03;;;21.42;nan
63556;BME280;49700;48.072;7.800;2023-07-09T03:40:38;99785.69;;;21.39;nan
63556;BME280;49700;48.072;7.800;2023-07-09T03:43:05;99788.81;;;21.34;nan
63556;BME280;49700;48.072;7.800;2023-07-09T03:45:32;99798.47;;;21.27;nan
63556;BME280;49700;48.072;7.800;2023-07-09T03:47:58;99796.31;;;21.23;nan
63556;BME280;49700;48.072;7.800;2023-07-09T03:50:23;99792.94;;;21.20;nan
63556;BME280;49700;48.072;7.800;2023-07-09T03:52:49;99797.47;;;21.20;nan
63556;BME280;49700;48.072;7.800;2023-07-09T03:55:15;99797.59;;;21.18;nan
63556;BME280;49700;48.072;7.800;2023-07-09T03:57:40;99789.25;;;21.21;nan
63556;BME280;49700;48.072;7.800;2023-07-09T04:00:07;99793.31;;;21.26;nan
63556;BME280;49700;48.072;7.800;2023-07-09T04:02:41;99800.97;;;21.29;nan
63556;BME280;49700;48.072;7.800;2023-07-09T04:05:09;99799.00;;;21.31;nan
63556;BME280;49700;48.072;7.800;2023-07-09T04:07:34;99797.84;;;21.33;nan
63556;BME280;49700;48.072;7.800;2023-07-09T04:10:00;99791.47;;;21.34;nan
63556;BME280;49700;48.072;7.800;2023-07-09T04:12:26;99801.00;;;21.37;nan
63556;BME280;49700;48.072;7.800;2023-07-09T04:14:51;99795.66;;;21.37;nan
63556;BME280;49700;48.072;7.800;2023-07-09T04:17:16;99797.50;;;21.36;nan
63556;BME280;49700;48.072;7.800;2023-07-09T04:19:42;99796.19;;;21.40;nan
63556;BME280;49700;48.072;7.800;2023-07-09T04:22:10;99802.22;;;21.42;nan
63556;BME280;49700;48.072;7.800;2023-07-09T04:24:36;99799.38;;;21.44;nan
63556;BME280;49700;48.072;7.800;2023-07-09T04:27:01;99813.41;;;21.38;nan
63556;BME280;49700;48.072;7.800;2023-07-09T04:29:31;99810.16;;;21.26;nan
63556;BME280;49700;48.072;7.800;2023-07-09T04:31:59;99811.47;;;21.22;nan
63556;BME280;49700;48.072;7.800;2023-07-09T04:34:25;99814.13;;;21.22;nan
63556;BME280;49700;48.072;7.800;2023-07-09T04:36:50;99820.66;;;21.28;nan
63556;BME280;49700;48.072;7.800;2023-07-09T04:39:16;99816.69;;;21.32;nan
63556;BME280;49700;48.072;7.800;2023-07-09T04:41:41;99821.41;;;21.38;nan
63556;BME280;49700;48.072;7.800;2023-07-09T04:44:07;99817.09;;;21.45;nan
63556;BME280;49700;48.072;7.800;2023-07-09T04:46:32;99820.63;;;21.54;nan
63556;BME280;49700;48.072;7.800;2023-07-09T04:48:57;99823.66;;;21.67;nan
63556;BME280;49700;48.072;7.800;2023-07-09T04:51:23;99828.34;;;21.81;nan
63556;BME280;49700;48.072;7.800;2023-07-09T04:53:49;99816.03;;;21.97;nan
63556;BME280;49700;48.072;7.800;2023-07-09T04:56:17;99816.06;;;22.29;nan
63556;BME280;49700;48.072;7.800;2023-07-09T04:58:43;99815.97;;;22.79;nan
63556;BME280;49700;48.072;7.800;2023-07-09T05:01:08;99816.47;;;23.30;nan
63556;BME280;49700;48.072;7.800;2023-07-09T05:03:34;99808.69;;;23.82;nan
63556;BME280;49700;48.072;7.800;2023-07-09T05:05:59;99802.38;;;24.36;nan
63556;BME280;49700;48.072;7.800;2023-07-09T05:08:24;99801.88;;;24.85;nan
63556;BME280;49700;48.072;7.800;2023-07-09T05:10:51;99807.72;;;25.33;nan
63556;BME280;49700;48.072;7.800;2023-07-09T05:13:18;99803.66;;;25.80;nan
63556;BME280;49700;48.072;7.800;2023-07-09T05:15:46;99811.56;;;26.25;nan
63556;BME280;49700;48.072;7.800;2023-07-09T05:18:12;99797.81;;;26.69;nan
63556;BME280;49700;48.072;7.800;2023-07-09T05:20:39;99796.78;;;27.05;nan
63556;BME280;49700;48.072;7.800;2023-07-09T05:23:05;99797.78;;;27.39;nan
63556;BME280;49700;48.072;7.800;2023-07-09T05:25:31;99801.59;;;27.78;nan
63556;BME280;49700;48.072;7.800;2023-07-09T05:27:56;99789.22;;;28.17;nan
63556;BME280;49700;48.072;7.800;2023-07-09T05:30:25;99785.69;;;28.50;nan
63556;BME280;49700;48.072;7.800;2023-07-09T05:32:51;99792.94;;;28.69;nan
63556;BME280;49700;48.072;7.800;2023-07-09T05:35:19;99789.81;;;28.79;nan
63556;BME280;49700;48.072;7.800;2023-07-09T05:37:47;99798.72;;;28.93;nan
63556;BME280;49700;48.072;7.800;2023-07-09T05:40:13;99794.50;;;29.10;nan
63556;BME280;49700;48.072;7.800;2023-07-09T05:42:38;99798.16;;;29.29;nan
63556;BME280;49700;48.072;7.800;2023-07-09T05:45:04;99794.94;;;29.52;nan
63556;BME280;49700;48.072;7.800;2023-07-09T05:47:30;99801.25;;;29.84;nan
63556;BME280;49700;48.072;7.800;2023-07-09T05:49:55;99793.28;;;30.14;nan
63556;BME280;49700;48.072;7.800;2023-07-09T05:52:22;99796.31;;;30.31;nan
63556;BME280;49700;48.072;7.800;2023-07-09T05:54:51;99789.97;;;30.62;nan
63556;BME280;49700;48.072;7.800;2023-07-09T05:57:17;99784.19;;;30.96;nan
63556;BME280;49700;48.072;7.800;2023-07-09T05:59:43;99789.22;;;31.29;nan
63556;BME280;49700;48.072;7.800;2023-07-09T06:02:11;99783.94;;;31.64;nan
63556;BME280;49700;48.072;7.800;2023-07-09T06:04:37;99785.22;;;31.92;nan
63556;BME280;49700;48.072;7.800;2023-07-09T06:07:02;99779.47;;;32.12;nan
63556;BME280;49700;48.072;7.800;2023-07-09T06:09:29;99779.84;;;32.27;nan
63556;BME280;49700;48.072;7.800;2023-07-09T06:11:55;99787.31;;;32.44;nan
63556;BME280;49700;48.072;7.800;2023-07-09T06:14:21;99793.81;;;32.66;nan
63556;BME280;49700;48.072;7.800;2023-07-09T06:16:46;99780.31;;;32.95;nan
63556;BME280;49700;48.072;7.800;2023-07-09T06:19:12;99789.00;;;33.20;nan
63556;BME280;49700;48.072;7.800;2023-07-09T06:21:39;99791.66;;;33.44;nan
63556;BME280;49700;48.072;7.800;2023-07-09T06:24:06;99785.94;;;33.57;nan
63556;BME280;49700;48.072;7.800;2023-07-09T06:26:32;99782.44;;;33.62;nan
63556;BME280;49700;48.072;7.800;2023-07-09T06:28:57;99773.16;;;33.46;nan
63556;BME280;49700;48.072;7.800;2023-07-09T06:31:23;99774.72;;;33.42;nan
63556;BME280;49700;48.072;7.800;2023-07-09T06:33:50;99775.44;;;33.37;nan
63556;BME280;49700;48.072;7.800;2023-07-09T06:36:17;99777.63;;;33.52;nan
63556;BME280;49700;48.072;7.800;2023-07-09T06:38:43;99775.91;;;33.46;nan
63556;BME280;49700;48.072;7.800;2023-07-09T06:41:10;99774.69;;;33.54;nan
63556;BME280;49700;48.072;7.800;2023-07-09T06:43:35;99775.16;;;33.79;nan
63556;BME280;49700;48.072;7.800;2023-07-09T06:46:04;99774.13;;;34.14;nan
63556;BME280;49700;48.072;7.800;2023-07-09T06:48:30;99768.38;;;34.49;nan
63556;BME280;49700;48.072;7.800;2023-07-09T06:50:57;99760.31;;;34.76;nan
63556;BME280;49700;48.072;7.800;2023-07-09T06:53:23;99760.31;;;34.98;nan
63556;BME280;49700;48.072;7.800;2023-07-09T06:55:48;99757.13;;;35.29;nan
63556;BME280;49700;48.072;7.800;2023-07-09T06:58:18;99762.16;;;35.64;nan
63556;BME280;49700;48.072;7.800;2023-07-09T07:00:45;99759.81;;;35.78;nan
63556;BME280;49700;48.072;7.800;2023-07-09T07:03:10;99763.16;;;35.85;nan
63556;BME280;49700;48.072;7.800;2023-07-09T07:05:36;99766.00;;;35.95;nan
63556;BME280;49700;48.072;7.800;2023-07-09T07:08:03;99753.81;;;35.76;nan
63556;BME280;49700;48.072;7.800;2023-07-09T07:10:29;99754.09;;;35.52;nan
63556;BME280;49700;48.072;7.800;2023-07-09T07:12:55;99753.22;;;35.46;nan
63556;BME280;49700;48.072;7.800;2023-07-09T07:15:23;99750.22;;;35.48;nan
63556;BME280;49700;48.072;7.800;2023-07-09T07:17:49;99747.50;;;35.75;nan
63556;BME280;49700;48.072;7.800;2023-07-09T07:20:16;99743.84;;;35.97;nan
63556;BME280;49700;48.072;7.800;2023-07-09T07:22:41;99739.66;;;36.16;nan
63556;BME280;49700;48.072;7.800;2023-07-09T07:25:07;99742.00;;;36.45;nan
63556;BME280;49700;48.072;7.800;2023-07-09T07:27:33;99750.34;;;36.60;nan
63556;BME280;49700;48.072;7.800;2023-07-09T07:30:00;99745.94;;;36.54;nan
63556;BME280;49700;48.072;7.800;2023-07-09T07:32:25;99752.78;;;36.62;nan
63556;BME280;49700;48.072;7.800;2023-07-09T07:34:51;99738.31;;;36.66;nan
63556;BME280;49700;48.072;7.800;2023-07-09T07:37:19;99742.38;;;36.59;nan
63556;BME280;49700;48.072;7.800;2023-07-09T07:42:44;99745.44;;;36.72;nan
63556;BME280;49700;48.072;7.800;2023-07-09T07:45:11;99746.63;;;36.87;nan
63556;BME280;49700;48.072;7.800;2023-07-09T07:47:36;99745.63;;;37.03;nan
63556;BME280;49700;48.072;7.800;2023-07-09T07:50:01;99748.38;;;37.08;nan
63556;BME280;49700;48.072;7.800;2023-07-09T07:52:28;99737.69;;;37.12;nan
63556;BME280;49700;48.072;7.800;2023-07-09T07:54:53;99733.03;;;37.12;nan
63556;BME280;49700;48.072;7.800;2023-07-09T07:57:19;99741.78;;;37.09;nan
63556;BME280;49700;48.072;7.800;2023-07-09T07:59:44;99741.25;;;37.12;nan
63556;BME280;49700;48.072;7.800;2023-07-09T08:02:13;99740.16;;;37.18;nan
63556;BME280;49700;48.072;7.800;2023-07-09T08:04:42;99733.31;;;37.06;nan
63556;BME280;49700;48.072;7.800;2023-07-09T08:07:09;99731.06;;;36.97;nan
63556;BME280;49700;48.072;7.800;2023-07-09T08:09:34;99733.25;;;37.01;nan
63556;BME280;49700;48.072;7.800;2023-07-09T08:12:01;99740.69;;;37.05;nan
63556;BME280;49700;48.072;7.800;2023-07-09T08:14:27;99741.22;;;37.02;nan
63556;BME280;49700;48.072;7.800;2023-07-09T08:16:52;99745.22;;;36.79;nan
63556;BME280;49700;48.072;7.800;2023-07-09T08:19:19;99747.06;;;36.63;nan
63556;BME280;49700;48.072;7.800;2023-07-09T08:21:45;99745.59;;;36.50;nan
63556;BME280;49700;48.072;7.800;2023-07-09T08:24:11;99753.72;;;36.35;nan
63556;BME280;49700;48.072;7.800;2023-07-09T08:26:37;99743.69;;;36.08;nan
63556;BME280;49700;48.072;7.800;2023-07-09T08:29:03;99746.81;;;35.90;nan
63556;BME280;49700;48.072;7.800;2023-07-09T08:31:29;99752.47;;;35.83;nan
63556;BME280;49700;48.072;7.800;2023-07-09T08:33:54;99748.75;;;35.62;nan
63556;BME280;49700;48.072;7.800;2023-07-09T08:36:20;99749.00;;;35.34;nan
63556;BME280;49700;48.072;7.800;2023-07-09T08:38:45;99748.06;;;35.23;nan
63556;BME280;49700;48.072;7.800;2023-07-09T08:52:07;99748.63;;;35.79;nan
63556;BME280;49700;48.072;7.800;2023-07-09T08:54:36;99745.66;;;35.86;nan
63556;BME280;49700;48.072;7.800;2023-07-09T08:57:35;99739.28;;;35.70;nan
63556;BME280;49700;48.072;7.800;2023-07-09T09:02:58;99744.47;;;35.72;nan
63556;BME280;49700;48.072;7.800;2023-07-09T09:05:25;99736.97;;;35.89;nan
63556;BME280;49700;48.072;7.800;2023-07-09T09:07:58;99729.22;;;36.08;nan
63556;BME280;49700;48.072;7.800;2023-07-09T09:10:39;99725.50;;;36.29;nan
63556;BME280;49700;48.072;7.800;2023-07-09T09:13:13;99716.81;;;36.43;nan
63556;BME280;49700;48.072;7.800;2023-07-09T09:15:41;99716.53;;;36.39;nan
63556;BME280;49700;48.072;7.800;2023-07-09T09:18:27;99718.97;;;36.30;nan
63556;BME280;49700;48.072;7.800;2023-07-09T09:21:00;99707.19;;;36.30;nan
63556;BME280;49700;48.072;7.800;2023-07-09T09:23:38;99708.91;;;36.41;nan
63556;BME280;49700;48.072;7.800;2023-07-09T09:26:14;99701.06;;;36.55;nan
63556;BME280;49700;48.072;7.800;2023-07-09T09:28:40;99702.75;;;36.71;nan
63556;BME280;49700;48.072;7.800;2023-07-09T09:31:09;99705.59;;;36.92;nan
63556;BME280;49700;48.072;7.800;2023-07-09T09:33:44;99700.72;;;37.14;nan
63556;BME280;49700;48.072;7.800;2023-07-09T09:36:25;99701.00;;;37.18;nan
63556;BME280;49700;48.072;7.800;2023-07-09T09:38:51;99701.31;;;37.22;nan
63556;BME280;49700;48.072;7.800;2023-07-09T09:41:25;99687.59;;;37.37;nan
63556;BME280;49700;48.072;7.800;2023-07-09T09:43:53;99695.28;;;37.40;nan
63556;BME280;49700;48.072;7.800;2023-07-09T09:46:22;99693.63;;;37.39;nan
63556;BME280;49700;48.072;7.800;2023-07-09T09:48:49;99694.44;;;37.34;nan
63556;BME280;49700;48.072;7.800;2023-07-09T09:51:17;99693.09;;;37.42;nan
63556;BME280;49700;48.072;7.800;2023-07-09T09:54:11;99694.19;;;37.41;nan
63556;BME280;49700;48.072;7.800;2023-07-09T09:56:42;99693.06;;;37.32;nan
63556;BME280;49700;48.072;7.800;2023-07-09T09:59:17;99688.44;;;37.27;nan
63556;BME280;49700;48.072;7.800;2023-07-09T10:01:43;99690.34;;;37.47;nan
63556;BME280;49700;48.072;7.800;2023-07-09T10:04:10;99684.06;;;37.67;nan
63556;BME280;49700;48.072;7.800;2023-07-09T10:06:44;99681.06;;;37.69;nan
63556;BME280;49700;48.072;7.800;2023-07-09T10:20:21;99679.94;;;37.85;nan
63556;BME280;49700;48.072;7.800;2023-07-09T10:33:49;99667.56;;;38.23;nan
63556;BME280;49700;48.072;7.800;2023-07-09T10:36:38;99664.56;;;38.15;nan
63556;BME280;49700;48.072;7.800;2023-07-09T10:39:14;99670.63;;;38.12;nan
63556;BME280;49700;48.072;7.800;2023-07-09T10:41:43;99666.19;;;38.21;nan
63556;BME280;49700;48.072;7.800;2023-07-09T10:44:38;99662.03;;;38.34;nan
63556;BME280;49700;48.072;7.800;2023-07-09T10:47:11;99661.16;;;38.54;nan
63556;BME280;49700;48.072;7.800;2023-07-09T10:49:41;99654.53;;;38.65;nan
63556;BME280;49700;48.072;7.800;2023-07-09T10:52:16;99662.22;;;38.68;nan
63556;BME280;49700;48.072;7.800;2023-07-09T10:56:04;99665.78;;;38.63;nan
63556;BME280;49700;48.072;7.800;2023-07-09T10:58:24;99662.25;;;38.58;nan
63556;BME280;49700;48.072;7.800;2023-07-09T11:00:53;99657.31;;;38.55;nan
63556;BME280;49700;48.072;7.800;2023-07-09T11:03:24;99657.91;;;38.51;nan
63556;BME280;49700;48.072;7.800;2023-07-09T11:05:54;99654.88;;;38.43;nan
63556;BME280;49700;48.072;7.800;2023-07-09T11:08:35;99650.50;;;38.42;nan
63556;BME280;49700;48.072;7.800;2023-07-09T11:11:05;99657.38;;;38.44;nan
63556;BME280;49700;48.072;7.800;2023-07-09T11:13:39;99650.19;;;38.54;nan
63556;BME280;49700;48.072;7.800;2023-07-09T11:16:11;99647.94;;;38.66;nan
63556;BME280;49700;48.072;7.800;2023-07-09T11:18:39;99648.97;;;38.75;nan
63556;BME280;49700;48.072;7.800;2023-07-09T11:21:13;99637.38;;;38.83;nan
63556;BME280;49700;48.072;7.800;2023-07-09T11:23:49;99635.75;;;38.82;nan
63556;BME280;49700;48.072;7.800;2023-07-09T11:29:14;99644.63;;;38.69;nan
63556;BME280;49700;48.072;7.800;2023-07-09T11:31:44;99639.44;;;38.67;nan
63556;BME280;49700;48.072;7.800;2023-07-09T11:44:49;99645.09;;;38.16;nan
63556;BME280;49700;48.072;7.800;2023-07-09T11:47:22;99639.63;;;38.06;nan
63556;BME280;49700;48.072;7.800;2023-07-09T11:49:56;99632.78;;;38.08;nan
63556;BME280;49700;48.072;7.800;2023-07-09T11:55:20;99622.28;;;38.26;nan
63556;BME280;49700;48.072;7.800;2023-07-09T11:57:52;99618.97;;;38.29;nan
63556;BME280;49700;48.072;7.800;2023-07-09T12:00:17;99620.31;;;38.37;nan
63556;BME280;49700;48.072;7.800;2023-07-09T12:02:43;99621.13;;;38.37;nan
63556;BME280;49700;48.072;7.800;2023-07-09T12:05:09;99615.13;;;38.35;nan
63556;BME280;49700;48.072;7.800;2023-07-09T12:07:35;99615.38;;;38.39;nan
63556;BME280;49700;48.072;7.800;2023-07-09T12:10:03;99606.88;;;38.40;nan
63556;BME280;49700;48.072;7.800;2023-07-09T12:12:29;99608.53;;;38.36;nan
63556;BME280;49700;48.072;7.800;2023-07-09T12:14:54;99611.81;;;38.43;nan
63556;BME280;49700;48.072;7.800;2023-07-09T12:17:23;99596.94;;;38.55;nan
63556;BME280;49700;48.072;7.800;2023-07-09T12:19:51;99601.28;;;38.61;nan
63556;BME280;49700;48.072;7.800;2023-07-09T12:22:20;99607.09;;;38.59;nan
63556;BME280;49700;48.072;7.800;2023-07-09T12:24:48;99604.63;;;38.53;nan
63556;BME280;49700;48.072;7.800;2023-07-09T12:27:23;99592.50;;;38.59;nan
63556;BME280;49700;48.072;7.800;2023-07-09T12:29:52;99590.03;;;38.62;nan
63556;BME280;49700;48.072;7.800;2023-07-09T12:32:17;99587.53;;;38.66;nan
63556;BME280;49700;48.072;7.800;2023-07-09T12:34:49;99582.88;;;38.66;nan
63556;BME280;49700;48.072;7.800;2023-07-09T12:37:15;99585.06;;;38.64;nan
63556;BME280;49700;48.072;7.800;2023-07-09T12:39:41;99579.28;;;38.71;nan
63556;BME280;49700;48.072;7.800;2023-07-09T12:42:16;99578.69;;;38.74;nan
63556;BME280;49700;48.072;7.800;2023-07-09T12:44:43;99584.78;;;38.66;nan
63556;BME280;49700;48.072;7.800;2023-07-09T12:47:13;99579.09;;;38.57;nan
63556;BME280;49700;48.072;7.800;2023-07-09T12:49:41;99577.44;;;38.56;nan
63556;BME280;49700;48.072;7.800;2023-07-09T12:52:13;99582.69;;;38.47;nan
63556;BME280;49700;48.072;7.800;2023-07-09T12:54:39;99572.25;;;38.49;nan
63556;BME280;49700;48.072;7.800;2023-07-09T12:57:13;99581.63;;;38.48;nan
63556;BME280;49700;48.072;7.800;2023-07-09T12:59:40;99576.66;;;38.45;nan
63556;BME280;49700;48.072;7.800;2023-07-09T13:02:19;99576.13;;;38.48;nan
63556;BME280;49700;48.072;7.800;2023-07-09T13:04:46;99582.91;;;38.56;nan
63556;BME280;49700;48.072;7.800;2023-07-09T13:09:50;99570.25;;;38.65;nan
63556;BME280;49700;48.072;7.800;2023-07-09T13:12:16;99574.34;;;38.68;nan
63556;BME280;49700;48.072;7.800;2023-07-09T13:14:41;99570.47;;;38.74;nan
63556;BME280;49700;48.072;7.800;2023-07-09T13:17:09;99566.88;;;38.79;nan
63556;BME280;49700;48.072;7.800;2023-07-09T13:19:37;99562.47;;;38.78;nan
63556;BME280;49700;48.072;7.800;2023-07-09T13:22:04;99560.63;;;38.68;nan
63556;BME280;49700;48.072;7.800;2023-07-09T13:24:31;99560.97;;;38.56;nan
63556;BME280;49700;48.072;7.800;2023-07-09T13:26:59;99547.78;;;38.58;nan
63556;BME280;49700;48.072;7.800;2023-07-09T13:29:25;99550.25;;;38.60;nan
63556;BME280;49700;48.072;7.800;2023-07-09T13:31:50;99546.97;;;38.58;nan
63556;BME280;49700;48.072;7.800;2023-07-09T13:36:44;99542.09;;;38.44;nan
63556;BME280;49700;48.072;7.800;2023-07-09T13:39:10;99538.25;;;38.45;nan
63556;BME280;49700;48.072;7.800;2023-07-09T13:41:38;99531.66;;;38.51;nan
63556;BME280;49700;48.072;7.800;2023-07-09T13:44:17;99522.81;;;38.60;nan
63556;BME280;49700;48.072;7.800;2023-07-09T13:46:44;99523.31;;;38.62;nan
63556;BME280;49700;48.072;7.800;2023-07-09T13:49:16;99516.78;;;38.58;nan
63556;BME280;49700;48.072;7.800;2023-07-09T13:51:44;99508.88;;;38.51;nan
63556;BME280;49700;48.072;7.800;2023-07-09T13:56:41;99517.38;;;38.49;nan
63556;BME280;49700;48.072;7.800;2023-07-09T13:59:13;99511.31;;;38.53;nan
63556;BME280;49700;48.072;7.800;2023-07-09T14:01:42;99505.56;;;38.54;nan
63556;BME280;49700;48.072;7.800;2023-07-09T14:04:10;99505.28;;;38.50;nan
63556;BME280;49700;48.072;7.800;2023-07-09T14:06:36;99495.97;;;38.51;nan
63556;BME280;49700;48.072;7.800;2023-07-09T14:09:01;99501.75;;;38.40;nan
63556;BME280;49700;48.072;7.800;2023-07-09T14:11:28;99496.56;;;38.38;nan
63556;BME280;49700;48.072;7.800;2023-07-09T14:13:55;99491.63;;;38.40;nan
63556;BME280;49700;48.072;7.800;2023-07-09T14:16:21;99488.03;;;38.45;nan
63556;BME280;49700;48.072;7.800;2023-07-09T14:18:47;99488.78;;;38.56;nan
63556;BME280;49700;48.072;7.800;2023-07-09T14:21:18;99497.22;;;38.64;nan
63556;BME280;49700;48.072;7.800;2023-07-09T14:23:46;99488.69;;;38.71;nan
63556;BME280;49700;48.072;7.800;2023-07-09T14:26:11;99485.69;;;38.67;nan
63556;BME280;49700;48.072;7.800;2023-07-09T14:28:36;99487.31;;;38.68;nan
63556;BME280;49700;48.072;7.800;2023-07-09T14:31:04;99482.06;;;38.72;nan
63556;BME280;49700;48.072;7.800;2023-07-09T14:33:38;99475.44;;;38.78;nan